Time;durP1;ratioP1;P1;durP2;ratioP2;P2;SDS_P1;SDS_P2;PMS_P1;PMS_P2;Temp;Humidity;BMP_temperature;BMP_pressure;BME280_temperature;BME280_humidity;BME280_pressure;Samples;Min_cycle;Max_cycle;Signal;HPM_P1;HPM_P2
2022/07/01 00:00:49;;;;;;;11.30;5.50;;;;;;;23.15;59.29;100122.40;104430;1274;95242;-69
2022/07/01 00:03:16;;;;;;;10.10;5.10;;;;;;;23.13;59.70;100121.65;104208;1274;138347;-70
2022/07/01 00:05:45;;;;;;;12.00;6.00;;;;;;;23.11;60.33;100124.71;104478;1274;99809;-68
2022/07/01 00:08:14;;;;;;;12.00;6.30;;;;;;;23.12;60.51;100125.73;103628;1274;108834;-69
2022/07/01 00:10:42;;;;;;;14.60;6.00;;;;;;;23.11;60.91;100120.51;104218;1274;138151;-70
2022/07/01 00:13:10;;;;;;;9.40;5.50;;;;;;;23.11;60.93;100123.77;103751;1274;95436;-70
2022/07/01 00:15:38;;;;;;;13.50;6.30;;;;;;;23.10;61.45;100122.25;103484;1274;141103;-71
2022/07/01 00:18:06;;;;;;;11.00;5.90;;;;;;;23.10;61.68;100127.35;103809;1274;98438;-70
2022/07/01 00:20:34;;;;;;;11.10;6.50;;;;;;;23.08;62.08;100132.21;103643;1274;138874;-70
2022/07/01 00:23:02;;;;;;;10.90;6.40;;;;;;;23.08;62.29;100133.31;104389;1274;95466;-70
2022/07/01 00:25:30;;;;;;;10.90;6.30;;;;;;;23.07;62.36;100135.15;104275;1274;95796;-69
2022/07/01 00:27:58;;;;;;;11.70;6.60;;;;;;;23.09;62.58;100137.76;104268;1274;139260;-70
2022/07/01 00:30:26;;;;;;;12.30;6.30;;;;;;;23.11;62.57;100136.66;104346;1275;99362;-70
2022/07/01 00:32:54;;;;;;;10.60;6.40;;;;;;;23.12;62.65;100140.34;104144;1277;138430;-70
2022/07/01 00:35:22;;;;;;;11.40;6.30;;;;;;;23.13;62.82;100138.65;104367;1274;95231;-70
2022/07/01 00:37:50;;;;;;;12.60;7.10;;;;;;;23.12;63.01;100138.17;104380;1274;95262;-70
2022/07/01 00:40:18;;;;;;;10.90;7.20;;;;;;;23.12;63.27;100134.81;104228;1277;137745;-70
2022/07/01 00:42:46;;;;;;;12.40;7.30;;;;;;;23.11;63.36;100138.65;104318;1277;99427;-69
2022/07/01 00:45:14;;;;;;;9.90;7.00;;;;;;;23.11;63.42;100134.85;103818;1277;138319;-70
2022/07/01 00:47:43;;;;;;;12.10;7.00;;;;;;;23.09;63.64;100136.65;104357;1274;95869;-70
2022/07/01 00:50:14;;;;;;;11.70;6.90;;;;;;;23.07;63.67;100136.31;104303;1277;96153;-70
2022/07/01 00:52:43;;;;;;;12.00;7.20;;;;;;;23.08;63.87;100142.13;104254;1277;140260;-70
2022/07/01 00:55:14;;;;;;;10.50;6.60;;;;;;;23.09;63.61;100139.71;104308;1276;99374;-71
2022/07/01 00:57:43;;;;;;;13.90;7.50;;;;;;;23.08;63.87;100146.84;104242;1274;138214;-70
2022/07/01 01:00:15;;;;;;;10.60;7.10;;;;;;;23.06;63.83;100146.63;104317;1274;95236;-69
2022/07/01 01:02:51;;;;;;;11.60;7.70;;;;;;;23.06;63.95;100154.27;104234;1277;138416;-69
2022/07/01 01:05:20;;;;;;;10.60;7.60;;;;;;;23.06;63.85;100153.38;104326;1275;109663;-69
2022/07/01 01:07:50;;;;;;;11.70;7.60;;;;;;;23.09;63.60;100160.77;104372;1277;97338;-70
2022/07/01 01:10:19;;;;;;;12.60;7.40;;;;;;;23.10;63.60;100171.88;104219;1276;138767;-70
2022/07/01 01:12:47;;;;;;;11.30;6.80;;;;;;;23.10;63.80;100188.16;104404;1274;95210;-70
2022/07/01 01:15:19;;;;;;;11.00;5.90;;;;;;;23.09;63.51;100192.23;104190;1276;140191;-69
2022/07/01 01:17:47;;;;;;;10.40;6.00;;;;;;;23.10;62.59;100196.33;103813;1277;109891;-69
2022/07/01 01:20:16;;;;;;;11.00;6.40;;;;;;;23.10;62.39;100189.29;103994;1277;99614;-70
2022/07/01 01:22:46;;;;;;;11.00;6.40;;;;;;;23.10;62.25;100194.15;103677;1277;138608;-70
2022/07/01 01:25:18;;;;;;;10.70;6.30;;;;;;;23.07;62.48;100200.19;103984;1275;95824;-70
2022/07/01 01:27:46;;;;;;;11.00;6.30;;;;;;;23.03;62.62;100205.35;103637;1276;138317;-70
2022/07/01 01:30:14;;;;;;;11.20;6.10;;;;;;;22.97;62.92;100209.67;103760;1277;109521;-70
2022/07/01 01:32:42;;;;;;;13.00;6.70;;;;;;;22.86;63.35;100219.05;103655;1277;138614;-70
2022/07/01 01:35:11;;;;;;;11.60;6.40;;;;;;;22.75;63.59;100219.39;103758;1274;108895;-70
2022/07/01 01:37:39;;;;;;;11.00;6.20;;;;;;;22.74;63.50;100232.04;103686;1276;95265;-69
2022/07/01 01:40:08;;;;;;;11.00;6.60;;;;;;;22.73;63.43;100242.92;103667;1275;138207;-69
2022/07/01 01:42:36;;;;;;;9.90;5.80;;;;;;;22.70;64.02;100243.91;104083;1275;109711;-69
2022/07/01 01:45:04;;;;;;;9.20;6.00;;;;;;;22.65;64.08;100242.15;103703;1277;138793;-70
2022/07/01 01:47:32;;;;;;;9.30;5.50;;;;;;;22.62;64.72;100236.90;104355;1275;109131;-70
2022/07/01 01:50:00;;;;;;;9.90;6.00;;;;;;;22.57;64.56;100236.27;104308;1277;95254;-69
2022/07/01 01:52:28;;;;;;;9.60;6.70;;;;;;;22.57;64.33;100234.45;104252;1272;138040;-69
2022/07/01 01:54:56;;;;;;;12.20;6.90;;;;;;;22.61;64.21;100241.88;104296;1276;109558;-69
2022/07/01 01:57:24;;;;;;;11.00;6.70;;;;;;;22.65;64.10;100242.34;103687;1274;138420;-69
2022/07/01 01:59:53;;;;;;;11.80;6.90;;;;;;;22.67;64.07;100248.06;103922;1274;108790;-71
2022/07/01 02:02:21;;;;;;;10.70;6.20;;;;;;;22.66;64.46;100246.75;103841;1277;95471;-71
2022/07/01 02:04:51;;;;;;;10.00;6.60;;;;;;;22.58;65.35;100233.80;104397;1277;95202;-70
2022/07/01 02:07:19;;;;;;;10.30;6.30;;;;;;;22.43;65.13;100229.34;104399;1274;109718;-70
2022/07/01 02:09:46;;;;;;;11.10;6.40;;;;;;;22.31;65.21;100225.59;104203;1276;138425;-71
2022/07/01 02:12:14;;;;;;;10.90;6.00;;;;;;;22.30;65.09;100236.29;104290;1276;109118;-70
2022/07/01 02:14:42;;;;;;;11.80;6.60;;;;;;;22.33;64.83;100239.76;104193;1275;139938;-69
2022/07/01 02:17:10;;;;;;;11.20;7.00;;;;;;;22.38;64.41;100244.04;104439;1274;95269;-70
2022/07/01 02:19:38;;;;;;;12.50;6.80;;;;;;;22.42;64.20;100242.13;104363;1277;109751;-70
2022/07/01 02:22:06;;;;;;;10.30;6.00;;;;;;;22.44;64.51;100237.04;104321;1276;138529;-69
2022/07/01 02:24:33;;;;;;;9.30;5.80;;;;;;;22.39;64.86;100232.39;104370;1277;108786;-70
2022/07/01 02:27:02;;;;;;;10.70;6.50;;;;;;;22.29;64.88;100229.36;104326;1275;138982;-70
2022/07/01 02:29:30;;;;;;;12.70;6.60;;;;;;;22.22;64.76;100231.73;104504;1274;95769;-69
2022/07/01 02:31:58;;;;;;;11.00;7.10;;;;;;;22.22;64.59;100241.45;104453;1276;109776;-70
2022/07/01 02:34:26;;;;;;;13.20;7.40;;;;;;;22.26;64.61;100245.48;104350;1277;138473;-70
2022/07/01 02:36:55;;;;;;;14.30;7.00;;;;;;;22.29;64.66;100245.45;104419;1277;108788;-70
2022/07/01 02:39:23;;;;;;;10.50;6.40;;;;;;;22.28;64.73;100243.33;104315;1277;138384;-71
2022/07/01 02:44:38;;;;;;;11.00;6.90;;;;;;;22.17;65.92;100236.75;104264;1276;143294;-69
2022/07/01 02:47:06;;;;;;;9.60;6.80;;;;;;;22.14;66.05;100241.68;104434;1277;99425;-69
2022/07/01 02:49:35;;;;;;;12.40;7.30;;;;;;;22.16;65.84;100243.55;104381;1276;108400;-69
2022/07/01 02:52:04;;;;;;;11.60;7.80;;;;;;;22.20;65.74;100246.86;103616;1277;138488;-70
2022/07/01 02:54:31;;;;;;;11.40;6.80;;;;;;;22.22;65.96;100251.98;104163;1276;98090;-71
2022/07/01 02:56:59;;;;;;;12.90;7.00;;;;;;;22.20;66.63;100252.48;104224;1276;139256;-71
2022/07/01 02:59:28;;;;;;;11.20;6.70;;;;;;;22.15;66.90;100243.95;104381;1277;97803;-70
2022/07/01 03:01:56;;;;;;;10.30;6.80;;;;;;;22.10;67.07;100247.64;104378;1277;109045;-69
2022/07/01 03:04:24;;;;;;;12.40;7.70;;;;;;;22.08;67.30;100242.23;104388;1274;139080;-70
2022/07/01 03:06:52;;;;;;;13.80;8.30;;;;;;;22.09;67.21;100248.48;104412;1277;95393;-70
2022/07/01 03:09:20;;;;;;;12.20;8.10;;;;;;;22.12;67.00;100259.41;104376;1274;138273;-70
2022/07/01 03:11:48;;;;;;;12.10;7.50;;;;;;;22.20;66.91;100266.06;104395;1277;99854;-70
2022/07/01 03:14:16;;;;;;;11.30;6.80;;;;;;;22.25;66.70;100263.84;104389;1274;108793;-69
2022/07/01 03:16:46;;;;;;;10.30;6.70;;;;;;;22.26;67.37;100259.27;103630;1277;138551;-70
2022/07/01 03:19:15;;;;;;;11.80;7.00;;;;;;;22.19;67.32;100251.96;103895;1277;95316;-70
2022/07/01 03:21:42;;;;;;;13.00;6.80;;;;;;;22.16;67.51;100251.09;104354;1275;138293;-69
2022/07/01 03:24:11;;;;;;;10.40;7.10;;;;;;;22.14;67.23;100251.63;103761;1274;99480;-69
2022/07/01 03:26:38;;;;;;;11.90;7.00;;;;;;;22.15;67.24;100245.77;103637;1277;138422;-70
2022/07/01 03:29:06;;;;;;;11.40;7.50;;;;;;;22.17;67.11;100243.98;103806;1275;95348;-68
2022/07/01 03:31:34;;;;;;;13.30;7.30;;;;;;;22.22;66.64;100241.67;103711;1277;95732;-70
2022/07/01 03:34:02;;;;;;;10.60;7.10;;;;;;;22.28;66.55;100247.36;104636;1274;139063;-71
2022/07/01 03:36:30;;;;;;;12.50;7.40;;;;;;;22.35;66.55;100248.21;104447;1274;98341;-69
2022/07/01 03:39:00;;;;;;;11.60;6.80;;;;;;;22.43;66.73;100247.70;103769;1277;139029;-71
2022/07/01 03:41:29;;;;;;;11.00;7.20;;;;;;;22.46;67.15;100246.89;104398;1274;95194;-70
2022/07/01 03:43:56;;;;;;;10.10;6.10;;;;;;;22.45;67.06;100240.08;104475;1275;95115;-69
2022/07/01 03:46:24;;;;;;;9.70;6.30;;;;;;;22.44;67.29;100236.95;104350;1276;138261;-68
2022/07/01 03:48:53;;;;;;;12.10;7.80;;;;;;;22.44;67.13;100233.13;103737;1275;99628;-70
2022/07/01 03:51:21;;;;;;;13.30;6.80;;;;;;;22.45;66.76;100230.48;103569;1277;138248;-70
2022/07/01 03:56:36;;;;;;;13.80;6.90;;;;;;;22.51;66.66;100226.34;103670;1275;138817;-69
2022/07/01 03:59:04;;;;;;;14.20;6.70;;;;;;;22.59;66.58;100230.67;103719;1277;109750;-69
2022/07/01 04:01:32;;;;;;;12.30;7.90;;;;;;;22.64;67.10;100227.92;103866;1277;99479;-69
2022/07/01 04:04:00;;;;;;;12.10;7.10;;;;;;;22.69;66.48;100229.35;103865;1277;138293;-69
2022/07/01 04:06:28;;;;;;;11.90;6.80;;;;;;;22.74;66.79;100228.19;103787;1275;95244;-71
2022/07/01 04:08:57;;;;;;;12.20;7.20;;;;;;;22.81;66.76;100230.55;103592;1277;138917;-69
2022/07/01 04:11:25;;;;;;;12.20;7.20;;;;;;;22.86;66.43;100229.96;103782;1277;109767;-69
2022/07/01 04:13:53;;;;;;;9.90;6.70;;;;;;;22.94;66.41;100225.54;103688;1274;99385;-70
2022/07/01 04:16:23;;;;;;;12.10;7.00;;;;;;;23.04;66.33;100223.05;103796;1275;138796;-70
2022/07/01 04:18:52;;;;;;;14.60;9.20;;;;;;;23.12;66.38;100223.14;103768;1277;95316;-69
2022/07/01 04:24:08;;;;;;;11.90;8.20;;;;;;;23.32;66.37;100219.52;104389;1275;109712;-71
2022/07/01 04:26:36;;;;;;;12.10;8.50;;;;;;;23.40;66.29;100215.06;104258;1277;138426;-70
2022/07/01 04:29:07;;;;;;;12.50;8.60;;;;;;;23.48;66.56;100214.63;104321;1277;109056;-70
2022/07/01 04:31:39;;;;;;;14.10;8.90;;;;;;;23.57;66.04;100211.30;103759;1277;95769;-69
2022/07/01 04:34:08;;;;;;;11.80;8.80;;;;;;;23.69;65.94;100203.21;103579;1277;139767;-67
2022/07/01 04:36:37;;;;;;;15.00;9.80;;;;;;;23.78;65.86;100202.63;104230;1274;109745;-70
2022/07/01 04:39:06;;;;;;;14.00;9.90;;;;;;;23.86;65.37;100207.77;104321;1277;139128;-70
2022/07/01 04:44:21;;;;;;;13.70;10.00;;;;;;;23.99;65.78;100206.29;104409;1275;95789;-71
2022/07/01 04:46:49;;;;;;;12.80;9.10;;;;;;;24.04;65.59;100206.98;104186;1276;138654;-71
2022/07/01 04:49:18;;;;;;;14.40;10.00;;;;;;;24.13;65.38;100204.95;104414;1277;109803;-70
2022/07/01 04:51:46;;;;;;;14.70;9.60;;;;;;;24.24;64.69;100196.77;104279;1277;139468;-69
2022/07/01 04:54:15;;;;;;;15.40;9.80;;;;;;;24.33;65.09;100204.70;104335;1277;108925;-68
2022/07/01 04:56:43;;;;;;;15.70;10.40;;;;;;;24.40;64.85;100201.16;104237;1276;138537;-69
2022/07/01 04:59:12;;;;;;;12.60;9.70;;;;;;;24.47;64.92;100201.08;104577;1276;95847;-69
2022/07/01 05:01:42;;;;;;;14.40;10.90;;;;;;;24.56;64.65;100203.60;104327;1277;109740;-71
2022/07/01 05:04:12;;;;;;;13.00;9.90;;;;;;;24.63;64.54;100199.88;104451;1275;138640;-69
2022/07/01 05:06:40;;;;;;;11.50;9.20;;;;;;;24.66;64.62;100196.39;104422;1277;108883;-69
2022/07/01 05:09:08;;;;;;;15.00;9.80;;;;;;;24.73;64.29;100192.54;104144;1276;180457;-69
2022/07/01 05:11:36;;;;;;;11.50;9.50;;;;;;;24.80;64.51;100197.28;104340;1277;95673;-69
2022/07/01 05:14:04;;;;;;;13.00;10.60;;;;;;;24.87;63.70;100196.86;104390;1274;108581;-70
2022/07/01 05:16:33;;;;;;;14.00;10.80;;;;;;;24.93;63.28;100192.57;104240;1277;138606;-70
2022/07/01 05:22:01;;;;;;;14.50;11.30;;;;;;;25.06;62.92;100194.79;104213;1276;139295;-69
2022/07/01 05:24:31;;;;;;;13.70;10.90;;;;;;;25.12;63.38;100192.59;104316;1277;95131;-70
2022/07/01 05:27:01;;;;;;;12.90;10.40;;;;;;;25.20;63.17;100193.52;104237;1276;139053;-70
2022/07/01 05:29:29;;;;;;;13.60;10.80;;;;;;;25.27;63.02;100191.11;104521;1274;97704;-69
2022/07/01 05:31:57;;;;;;;12.90;11.00;;;;;;;25.33;62.38;100190.94;104304;1277;108834;-69
2022/07/01 05:34:25;;;;;;;13.80;10.70;;;;;;;25.40;62.15;100179.19;104202;1277;139089;-70
2022/07/01 05:36:53;;;;;;;14.20;10.10;;;;;;;25.46;62.99;100184.24;104237;1277;95296;-70
2022/07/01 05:39:21;;;;;;;13.10;11.30;;;;;;;25.55;61.73;100183.67;104225;1277;139317;-71
2022/07/01 05:41:49;;;;;;;14.00;11.30;;;;;;;25.61;61.67;100184.52;104377;1275;99367;-70
2022/07/01 05:44:17;;;;;;;17.00;11.30;;;;;;;25.68;61.87;100181.12;104349;1277;107108;-71
2022/07/01 05:46:45;;;;;;;14.90;11.40;;;;;;;25.76;62.06;100182.60;104256;1276;138465;-69
2022/07/01 05:49:13;;;;;;;14.10;11.50;;;;;;;25.83;61.66;100177.06;104381;1276;95830;-71
2022/07/01 05:51:45;;;;;;;13.20;10.20;;;;;;;25.89;61.52;100179.52;104238;1277;139107;-70
2022/07/01 05:54:13;;;;;;;12.80;10.40;;;;;;;25.95;60.63;100177.70;104385;1276;99379;-70
2022/07/01 05:56:41;;;;;;;14.80;11.70;;;;;;;26.00;60.28;100180.38;104174;1277;138817;-71
2022/07/01 05:59:09;;;;;;;14.00;11.60;;;;;;;26.05;60.44;100184.67;104327;1274;96270;-71
2022/07/01 06:01:37;;;;;;;13.30;10.80;;;;;;;26.12;60.96;100183.11;104408;1275;95222;-71
2022/07/01 06:04:05;;;;;;;14.10;11.10;;;;;;;26.16;60.46;100178.48;104326;1275;138439;-71
2022/07/01 06:06:33;;;;;;;14.60;10.60;;;;;;;26.23;60.42;100178.05;104433;1277;98409;-71
2022/07/01 06:09:01;;;;;;;12.10;10.60;;;;;;;26.30;60.65;100179.02;104323;1277;138894;-70
2022/07/01 06:11:28;;;;;;;14.50;11.10;;;;;;;26.34;60.31;100177.73;104373;1275;95246;-70
2022/07/01 06:13:56;;;;;;;17.00;11.80;;;;;;;26.35;59.95;100179.95;104426;1274;95307;-70
2022/07/01 06:16:24;;;;;;;12.00;9.90;;;;;;;26.38;59.13;100177.71;104284;1275;139112;-70
2022/07/01 06:18:58;;;;;;;14.50;11.30;;;;;;;26.41;58.90;100177.44;104464;1277;99454;-70
2022/07/01 06:21:27;;;;;;;13.70;11.30;;;;;;;26.44;59.40;100177.05;104301;1277;138565;-71
2022/07/01 06:23:55;;;;;;;13.90;11.30;;;;;;;26.50;59.17;100177.75;104426;1277;95227;-70
2022/07/01 06:26:23;;;;;;;14.10;11.20;;;;;;;26.55;58.76;100175.84;104447;1275;95813;-70
2022/07/01 06:28:51;;;;;;;15.60;11.70;;;;;;;26.59;58.94;100180.05;104412;1277;109786;-70
2022/07/01 06:31:19;;;;;;;11.90;10.00;;;;;;;26.65;58.45;100179.09;104401;1277;99380;-70
2022/07/01 06:33:47;;;;;;;13.10;11.40;;;;;;;26.72;58.54;100179.55;104318;1275;138406;-70
2022/07/01 06:36:16;;;;;;;14.00;11.40;;;;;;;26.79;58.70;100179.96;104300;1276;95644;-70
2022/07/01 06:38:44;;;;;;;13.70;11.00;;;;;;;26.83;59.10;100179.13;104299;1274;138868;-70
2022/07/01 06:41:27;;;;;;;15.80;11.40;;;;;;;26.90;58.34;100178.16;104465;1277;109005;-70
2022/07/01 06:44:00;;;;;;;13.30;10.90;;;;;;;26.98;58.33;100179.69;104568;1274;99456;-71
2022/07/01 06:46:29;;;;;;;11.70;10.00;;;;;;;27.06;58.70;100179.81;104279;1277;138783;-71
2022/07/01 06:48:58;;;;;;;14.20;10.60;;;;;;;27.15;57.57;100179.27;105177;1274;95069;-71
2022/07/01 06:51:27;;;;;;;12.60;11.00;;;;;;;27.24;57.09;100179.17;104520;1276;138454;-70
2022/07/01 06:53:55;;;;;;;14.40;11.10;;;;;;;27.32;57.03;100177.77;104519;1277;108747;-70
2022/07/01 06:56:23;;;;;;;12.50;11.20;;;;;;;27.41;57.81;100174.40;104517;1277;99424;-71
2022/07/01 06:58:51;;;;;;;14.00;11.20;;;;;;;27.48;57.27;100173.42;104467;1277;109207;-70
2022/07/01 07:01:20;;;;;;;13.30;11.00;;;;;;;27.58;56.83;100170.30;104362;1277;96046;-71
2022/07/01 07:03:48;;;;;;;15.00;11.20;;;;;;;27.68;56.77;100168.38;104346;1274;138544;-71
2022/07/01 07:06:16;;;;;;;13.90;9.60;;;;;;;27.74;56.66;100167.33;104374;1277;109838;-71
2022/07/01 07:08:44;;;;;;;15.90;11.40;;;;;;;27.81;56.19;100167.70;104264;1277;139477;-70
2022/07/01 07:11:14;;;;;;;15.40;11.80;;;;;;;27.91;56.09;100170.75;104447;1277;108944;-71
2022/07/01 07:13:42;;;;;;;15.20;10.30;;;;;;;27.98;55.85;100169.12;104386;1277;95207;-71
2022/07/01 07:16:10;;;;;;;14.90;10.90;;;;;;;28.04;56.00;100166.66;104418;1274;138353;-74
2022/07/01 07:18:39;;;;;;;12.40;10.80;;;;;;;28.14;55.60;100170.79;104472;1277;109703;-74
2022/07/01 07:21:06;;;;;;;15.40;11.30;;;;;;;28.23;56.04;100172.17;104436;1274;138881;-75
2022/07/01 07:23:35;;;;;;;12.20;10.80;;;;;;;28.35;56.02;100172.24;104458;1277;108827;-75
2022/07/01 07:26:03;;;;;;;14.40;10.70;;;;;;;28.45;55.80;100167.52;104407;1277;95111;-74
2022/07/01 07:28:31;;;;;;;13.70;10.50;;;;;;;28.53;55.86;100163.73;104394;1274;138258;-75
2022/07/01 07:30:59;;;;;;;12.20;10.70;;;;;;;28.62;55.43;100160.05;104469;1274;109683;-75
2022/07/01 07:33:27;;;;;;;13.90;11.20;;;;;;;28.71;55.34;100158.84;104301;1277;139271;-75
2022/07/01 07:35:55;;;;;;;13.60;10.80;;;;;;;28.83;54.13;100155.48;104388;1277;108767;-73
2022/07/01 07:38:23;;;;;;;13.90;11.60;;;;;;;28.94;53.58;100152.35;104384;1277;95297;-74
2022/07/01 07:40:51;;;;;;;12.10;9.80;;;;;;;29.01;54.28;100157.35;104428;1274;95123;-72
2022/07/01 07:43:19;;;;;;;13.00;11.20;;;;;;;29.12;52.96;100158.23;104488;1274;109715;-69
2022/07/01 07:45:47;;;;;;;14.20;11.50;;;;;;;29.20;52.91;100157.91;104440;1274;139120;-69
2022/07/01 07:48:15;;;;;;;14.30;10.20;;;;;;;29.25;53.17;100155.21;104360;1275;107318;-70
2022/07/01 07:50:43;;;;;;;13.40;10.70;;;;;;;29.35;53.27;100154.85;104295;1277;138885;-70
2022/07/01 07:53:11;;;;;;;16.20;11.50;;;;;;;29.43;53.57;100156.84;104532;1274;95249;-70
2022/07/01 07:55:40;;;;;;;12.40;10.50;;;;;;;29.50;52.52;100153.95;104460;1277;109590;-71
2022/07/01 07:58:08;;;;;;;13.80;9.80;;;;;;;29.58;51.78;100156.30;104435;1275;139133;-70
2022/07/01 08:00:36;;;;;;;15.20;10.30;;;;;;;29.67;51.12;100154.94;104415;1274;108946;-70
2022/07/01 08:03:07;;;;;;;14.10;10.20;;;;;;;29.75;51.19;100152.95;104358;1277;139769;-70
2022/07/01 08:05:35;;;;;;;14.40;11.20;;;;;;;29.85;52.20;100149.50;104361;1274;95134;-70
2022/07/01 08:08:04;;;;;;;16.30;11.80;;;;;;;30.01;52.16;100149.54;104259;1277;109728;-70
2022/07/01 08:10:32;;;;;;;14.40;11.60;;;;;;;30.27;50.77;100145.14;104154;1277;138533;-70
2022/07/01 08:13:03;;;;;;;15.00;10.70;;;;;;;30.55;49.84;100152.09;104275;1275;109235;-70
2022/07/01 08:15:32;;;;;;;12.60;10.90;;;;;;;30.79;48.55;100151.69;104113;1276;138929;-70
2022/07/01 08:18:00;;;;;;;13.10;9.80;;;;;;;30.98;46.92;100154.41;104259;1277;95467;-70
2022/07/01 08:20:28;;;;;;;15.00;10.70;;;;;;;31.14;46.53;100161.27;104188;1275;138985;-70
2022/07/01 08:22:56;;;;;;;14.20;11.00;;;;;;;31.31;46.65;100163.11;104329;1274;98920;-70
2022/07/01 08:25:24;;;;;;;11.90;9.40;;;;;;;31.48;47.10;100166.80;104119;1277;108696;-70
2022/07/01 08:27:52;;;;;;;12.80;10.60;;;;;;;31.59;45.62;100160.66;104068;1277;139067;-70
2022/07/01 08:30:20;;;;;;;13.10;10.00;;;;;;;31.75;45.73;100158.38;104243;1277;95116;-69
2022/07/01 08:32:48;;;;;;;13.50;10.40;;;;;;;31.94;45.83;100158.02;103558;1278;139064;-71
2022/07/01 08:35:16;;;;;;;10.60;8.70;;;;;;;32.12;44.64;100161.02;104547;1277;99415;-70
2022/07/01 08:37:44;;;;;;;12.00;9.00;;;;;;;32.35;42.91;100160.23;104243;1277;107596;-70
2022/07/01 08:40:13;;;;;;;11.30;9.40;;;;;;;32.53;42.93;100156.02;104160;1277;137369;-71
2022/07/01 08:42:42;;;;;;;10.30;9.20;;;;;;;32.68;43.83;100156.23;104338;1274;95844;-71
2022/07/01 08:45:10;;;;;;;14.10;10.50;;;;;;;32.85;41.88;100152.33;104165;1274;138739;-70
2022/07/01 08:47:52;;;;;;;12.70;8.90;;;;;;;32.97;43.26;100155.84;104260;1277;99403;-70
2022/07/01 08:50:20;;;;;;;13.70;9.30;;;;;;;33.15;43.65;100152.70;104364;1274;108873;-70
2022/07/01 08:52:51;;;;;;;13.00;9.30;;;;;;;33.34;42.55;100148.17;104332;1274;95250;-70
2022/07/01 08:55:21;;;;;;;12.20;8.80;;;;;;;33.47;42.05;100146.56;104259;1278;95275;-70
2022/07/01 08:57:49;;;;;;;10.30;7.70;;;;;;;33.60;41.88;100150.55;104217;1277;138853;-71
2022/07/01 09:00:18;;;;;;;11.30;7.50;;;;;;;33.64;38.76;100145.10;104269;1277;99576;-71
2022/07/01 09:02:59;;;;;;;10.60;8.30;;;;;;;33.70;39.38;100146.31;104265;1276;138398;-70
2022/07/01 09:05:29;;;;;;;11.10;8.50;;;;;;;33.84;39.27;100137.71;104250;1278;95249;-68
2022/07/01 09:07:57;;;;;;;10.40;8.00;;;;;;;33.98;39.07;100136.33;103744;1274;95655;-72
2022/07/01 09:10:26;;;;;;;10.70;7.70;;;;;;;34.10;38.38;100137.35;104093;1277;138643;-69
2022/07/01 09:12:53;;;;;;;8.40;6.70;;;;;;;34.22;39.46;100135.39;103588;1277;99522;-71
2022/07/01 09:15:25;;;;;;;8.40;6.90;;;;;;;34.29;37.20;100137.48;104135;1277;138285;-69
2022/07/01 09:17:56;;;;;;;10.10;6.80;;;;;;;34.32;36.45;100136.46;103633;1278;95327;-71
2022/07/01 09:20:29;;;;;;;10.70;7.50;;;;;;;34.48;36.66;100133.25;104287;1277;95131;-69
2022/07/01 09:23:02;;;;;;;9.50;7.20;;;;;;;34.93;37.40;100138.96;104277;1276;109796;-70
2022/07/01 09:25:37;;;;;;;10.80;7.40;;;;;;;35.41;35.20;100136.19;104262;1274;98589;-71
2022/07/01 09:28:17;;;;;;;11.50;7.00;;;;;;;36.07;33.50;100125.88;104114;1278;138301;-70
2022/07/01 09:30:48;;;;;;;8.30;6.90;;;;;;;36.71;33.52;100133.23;104301;1274;95543;-69
2022/07/01 09:33:20;;;;;;;9.50;7.10;;;;;;;37.30;32.90;100124.93;104139;1277;138630;-69
2022/07/01 09:35:51;;;;;;;8.20;6.70;;;;;;;37.99;31.74;100123.05;104545;1274;110019;-70
2022/07/01 09:38:21;;;;;;;8.70;6.70;;;;;;;38.58;31.08;100125.47;103530;1274;99824;-70
2022/07/01 09:41:02;;;;;;;7.40;6.00;;;;;;;39.21;29.24;100128.31;104800;1274;108745;-70
2022/07/01 09:43:31;;;;;;;8.70;6.30;;;;;;;39.38;28.43;100117.70;104463;1275;95735;-69
2022/07/01 09:45:59;;;;;;;8.70;6.20;;;;;;;39.73;28.46;100121.83;104236;1273;141020;-69
2022/07/01 09:48:33;;;;;;;9.10;6.40;;;;;;;40.14;27.81;100120.83;104292;1274;110308;-69
2022/07/01 09:51:04;;;;;;;8.20;6.60;;;;;;;40.61;27.55;100122.69;104182;1278;139048;-69
2022/07/01 09:53:36;;;;;;;8.30;6.20;;;;;;;40.96;26.56;100122.25;104283;1274;108861;-69
2022/07/01 09:56:04;;;;;;;7.30;6.20;;;;;;;41.13;26.14;100123.02;104239;1274;95243;-69
2022/07/01 09:58:33;;;;;;;8.00;5.50;;;;;;;41.37;25.80;100126.85;103618;1274;138076;-69
2022/07/01 10:01:03;;;;;;;8.80;5.40;;;;;;;41.66;24.99;100134.73;103837;1275;109771;-69
2022/07/01 10:03:32;;;;;;;9.60;5.60;;;;;;;41.78;24.29;100136.00;103551;1275;138291;-68
2022/07/01 10:06:24;;;;;;;7.40;4.80;;;;;;;41.75;23.15;100144.96;103632;1277;108834;-70
2022/07/01 10:09:11;;;;;;;8.10;5.60;;;;;;;41.62;22.84;100143.34;103441;1274;142706;-68
2022/07/01 10:11:42;;;;;;;7.60;5.50;;;;;;;41.84;23.23;100142.11;103474;1275;95636;-69
2022/07/01 10:14:13;;;;;;;6.90;5.40;;;;;;;42.05;23.59;100143.62;103944;1276;109619;-70
2022/07/01 10:16:41;;;;;;;8.30;5.80;;;;;;;42.27;23.20;100132.15;104158;1277;139069;-70
2022/07/01 10:19:25;;;;;;;7.80;5.30;;;;;;;42.54;23.14;100135.71;104255;1277;108784;-70
2022/07/01 10:21:56;;;;;;;8.30;5.90;;;;;;;42.57;22.62;100137.21;104159;1277;138358;-70
2022/07/01 10:24:26;;;;;;;7.90;5.60;;;;;;;42.71;22.57;100129.13;104471;1276;95644;-70
2022/07/01 10:27:01;;;;;;;7.20;5.20;;;;;;;42.65;22.50;100129.28;104199;1276;138348;-70
2022/07/01 10:29:35;;;;;;;9.40;5.80;;;;;;;42.36;23.52;100126.48;104223;1277;99746;-70
2022/07/01 10:32:27;;;;;;;8.40;5.20;;;;;;;42.50;22.83;100123.95;104246;1275;108861;-70
2022/07/01 10:35:15;;;;;;;9.10;6.00;;;;;;;42.42;22.35;100123.35;104262;1277;95534;-70
2022/07/01 10:38:00;;;;;;;8.60;5.60;;;;;;;42.57;22.32;100120.02;104243;1277;95249;-70
2022/07/01 10:40:45;;;;;;;8.60;5.30;;;;;;;42.87;22.04;100112.52;104317;1274;138121;-72
2022/07/01 10:43:31;;;;;;;7.70;5.70;;;;;;;43.03;22.23;100112.70;104329;1274;99726;-70
2022/07/01 10:46:00;;;;;;;9.60;5.30;;;;;;;43.27;21.73;100113.42;104213;1277;138030;-69
2022/07/01 10:48:31;;;;;;;7.50;5.30;;;;;;;43.15;21.46;100108.02;104427;1277;95780;-71
2022/07/01 10:51:00;;;;;;;7.10;5.50;;;;;;;43.16;21.78;100108.77;104284;1277;139273;-71
2022/07/01 10:53:47;;;;;;;7.50;5.10;;;;;;;43.17;21.69;100107.83;104328;1274;110340;-70
2022/07/01 10:56:39;;;;;;;7.70;5.60;;;;;;;43.11;21.54;100112.91;104327;1277;99458;-71
2022/07/01 10:59:07;;;;;;;8.40;5.10;;;;;;;43.04;21.18;100102.58;104326;1277;109026;-69
2022/07/01 11:01:37;;;;;;;6.10;4.20;;;;;;;42.96;20.12;100102.64;104374;1274;95842;-70
2022/07/01 11:04:05;;;;;;;8.00;5.20;;;;;;;42.69;21.50;100098.98;104468;1274;138132;-70
2022/07/01 11:06:38;;;;;;;8.20;5.50;;;;;;;42.59;22.38;100097.27;104309;1275;109698;-70
2022/07/01 11:09:06;;;;;;;7.70;5.40;;;;;;;41.99;23.05;100099.02;104289;1274;140134;-70
2022/07/01 11:11:34;;;;;;;9.20;6.20;;;;;;;41.18;23.27;100098.36;104314;1274;107816;-69
2022/07/01 11:14:02;;;;;;;8.40;5.90;;;;;;;40.42;24.06;100089.60;104383;1274;95827;-70
2022/07/01 11:16:31;;;;;;;8.50;5.40;;;;;;;39.69;24.48;100095.17;104294;1274;138043;-70
2022/07/01 11:18:59;;;;;;;8.90;5.70;;;;;;;39.25;25.21;100087.36;104268;1277;109997;-71
2022/07/01 11:21:27;;;;;;;8.50;5.90;;;;;;;38.93;25.71;100077.84;104245;1275;138277;-70
2022/07/01 11:23:55;;;;;;;8.90;5.90;;;;;;;38.67;26.28;100079.59;104355;1274;108800;-70
2022/07/01 11:26:24;;;;;;;7.90;5.60;;;;;;;38.37;26.09;100072.48;104334;1274;95242;-70
2022/07/01 11:28:53;;;;;;;11.30;6.50;;;;;;;38.06;26.87;100072.23;104278;1276;95674;-70